Time;durP1;ratioP1;P1;durP2;ratioP2;P2;SDS_P1;SDS_P2;PMS_P1;PMS_P2;Temp;Humidity;BMP_temperature;BMP_pressure;BME280_temperature;BME280_humidity;BME280_pressure;Samples;Min_cycle;Max_cycle;Signal;HPM_P1;HPM_P2
2023/10/06 00:00:40;;;;;;;4.80;1.65;;;10.00;99.90;;;;;;4969382;28;20312;-71
2023/10/06 00:03:10;;;;;;;3.67;2.17;;;10.10;99.90;;;;;;4967934;28;20035;-71
2023/10/06 00:05:40;;;;;;;4.72;2.50;;;10.10;99.90;;;;;;4974137;28;20278;-71
2023/10/06 00:08:16;;;;;;;3.88;1.80;;;10.20;99.90;;;;;;4969308;28;20035;-71
2023/10/06 00:10:53;;;;;;;5.10;2.08;;;10.30;99.90;;;;;;4959583;28;20395;-71
2023/10/06 00:13:23;;;;;;;4.95;1.70;;;10.30;99.90;;;;;;4969189;28;20027;-71
2023/10/06 00:15:51;;;;;;;5.63;2.38;;;10.20;99.90;;;;;;4989729;28;20054;-71
2023/10/06 00:18:26;;;;;;;12.15;2.88;;;10.20;99.90;;;;;;4970346;28;20034;-71
2023/10/06 00:20:56;;;;;;;5.57;2.28;;;10.10;99.90;;;;;;4973862;28;20058;-71
2023/10/06 00:23:27;;;;;;;3.42;2.22;;;10.10;99.90;;;;;;4969041;28;20027;-71
2023/10/06 00:25:54;;;;;;;3.55;1.90;;;10.00;99.90;;;;;;4957625;28;20034;-71
2023/10/06 00:28:27;;;;;;;5.72;2.40;;;10.10;99.90;;;;;;4969699;28;20026;-71
2023/10/06 00:30:56;;;;;;;6.85;3.67;;;10.10;99.90;;;;;;4973489;28;20081;-71
2023/10/06 00:33:32;;;;;;;11.00;2.90;;;10.10;99.90;;;;;;4984546;28;20031;-71
2023/10/06 00:36:10;;;;;;;7.63;3.33;;;10.00;99.90;;;;;;4973436;28;20081;-71
2023/10/06 00:38:36;;;;;;;6.38;2.28;;;10.00;99.90;;;;;;4971136;28;20037;-71
2023/10/06 00:41:07;;;;;;;5.93;2.13;;;10.00;99.90;;;;;;4974602;28;20030;-71
2023/10/06 00:43:36;;;;;;;9.55;2.63;;;9.90;99.90;;;;;;4974272;28;20031;-71
2023/10/06 00:46:06;;;;;;;10.00;2.88;;;9.80;99.90;;;;;;4973992;28;20161;-71
2023/10/06 00:48:38;;;;;;;4.32;2.22;;;9.80;99.90;;;;;;4972563;28;20053;-71
2023/10/06 00:51:13;;;;;;;3.47;1.92;;;9.80;99.90;;;;;;4974510;28;20069;-72
2023/10/06 00:53:43;;;;;;;7.55;2.22;;;9.80;99.90;;;;;;4954477;28;20498;-71
2023/10/06 00:56:14;;;;;;;5.60;2.05;;;9.70;99.90;;;;;;4972434;28;20034;-71
2023/10/06 00:58:41;;;;;;;3.67;1.70;;;9.60;99.90;;;;;;4967546;28;20039;-71
2023/10/06 01:01:15;;;;;;;5.22;2.35;;;9.70;99.90;;;;;;4970442;28;20122;-71
2023/10/06 01:04:00;;;;;;;4.78;2.08;;;9.70;99.90;;;;;;4969865;28;20110;-72
2023/10/06 01:06:33;;;;;;;4.20;1.70;;;9.70;99.90;;;;;;4965908;28;20034;-71
2023/10/06 01:11:51;;;;;;;3.22;2.10;;;9.70;99.90;;;;;;4970117;28;20038;-72
2023/10/06 01:14:22;;;;;;;5.85;2.22;;;9.60;99.90;;;;;;4966442;28;20038;-71
2023/10/06 01:16:52;;;;;;;9.30;3.38;;;9.60;99.90;;;;;;4953491;28;20027;-71
2023/10/06 01:21:55;;;;;;;9.73;3.67;;;9.70;99.90;;;;;;4967489;28;20038;-72
2023/10/06 01:24:26;;;;;;;22.63;3.55;;;9.80;99.90;;;;;;4974262;28;20062;-72
2023/10/06 01:27:06;;;;;;;37.77;6.67;;;9.90;99.90;;;;;;4967194;28;20479;-70
2023/10/06 01:29:32;;;;;;;12.93;4.22;;;9.90;99.90;;;;;;4972410;28;20533;-71
2023/10/06 01:32:04;;;;;;;6.28;3.28;;;9.90;99.90;;;;;;4967369;28;20155;-71
2023/10/06 01:34:37;;;;;;;3.22;1.85;;;9.90;99.90;;;;;;4973439;28;20038;-70
2023/10/06 01:37:03;;;;;;;13.00;2.75;;;9.80;99.90;;;;;;4967292;28;20121;-71
2023/10/06 01:39:32;;;;;;;5.70;2.05;;;9.80;99.90;;;;;;4973705;28;20040;-70
2023/10/06 01:42:04;;;;;;;4.75;2.30;;;9.70;99.90;;;;;;4967275;28;20039;-70
2023/10/06 01:44:30;;;;;;;2.85;1.63;;;9.50;99.90;;;;;;4956658;28;20026;-71
2023/10/06 01:46:57;;;;;;;3.58;1.73;;;9.40;99.90;;;;;;4970425;28;20073;-71
2023/10/06 01:49:23;;;;;;;9.10;3.10;;;9.30;99.90;;;;;;4973041;28;20029;-71
2023/10/06 01:51:52;;;;;;;8.25;3.13;;;9.40;99.90;;;;;;4968262;28;20035;-71
2023/10/06 01:54:25;;;;;;;5.90;3.03;;;9.40;99.90;;;;;;4971995;28;20146;-71
2023/10/06 01:56:53;;;;;;;7.78;2.72;;;9.50;99.90;;;;;;4966892;28;20451;-71
2023/10/06 01:59:20;;;;;;;4.55;2.58;;;9.50;99.90;;;;;;4972323;28;20070;-71
2023/10/06 02:01:47;;;;;;;4.88;2.78;;;9.50;99.90;;;;;;4966689;28;20097;-71
2023/10/06 02:04:19;;;;;;;3.92;2.15;;;9.40;99.90;;;;;;4971712;28;20041;-71
2023/10/06 02:06:45;;;;;;;;;;;9.40;99.90;;;;;;4967125;28;20033;-70
2023/10/06 02:09:20;;;;;;;7.60;2.88;;;9.40;99.90;;;;;;4971920;28;19914;-71
2023/10/06 02:11:51;;;;;;;8.73;2.92;;;9.30;99.90;;;;;;4968634;28;20565;-71
2023/10/06 02:14:17;;;;;;;6.87;2.00;;;9.30;99.90;;;;;;4971508;28;20030;-70
2023/10/06 02:16:48;;;;;;;5.95;2.08;;;9.20;99.90;;;;;;4950657;28;20106;-71
2023/10/06 02:19:17;;;;;;;6.57;1.75;;;9.10;99.90;;;;;;4955623;28;20434;-70
2023/10/06 02:21:47;;;;;;;4.03;2.13;;;9.10;99.90;;;;;;4966485;28;20365;-71
2023/10/06 02:24:16;;;;;;;6.78;1.95;;;9.00;99.90;;;;;;4955138;28;20038;-71
2023/10/06 02:26:43;;;;;;;4.30;2.25;;;9.10;99.90;;;;;;4968032;28;20256;-70
2023/10/06 02:29:24;;;;;;;4.22;2.30;;;9.10;99.90;;;;;;4973080;28;20023;-70
2023/10/06 02:31:51;;;;;;;4.05;2.17;;;9.10;99.90;;;;;;4968350;28;20031;-70
2023/10/06 02:34:29;;;;;;;4.47;2.08;;;8.90;99.90;;;;;;4971667;28;20031;-70
2023/10/06 02:37:00;;;;;;;5.72;2.35;;;8.90;99.90;;;;;;4966191;28;20093;-70
2023/10/06 02:39:33;;;;;;;5.18;2.38;;;9.00;99.90;;;;;;4971668;28;20513;-70
2023/10/06 02:42:02;;;;;;;6.03;2.08;;;9.00;99.90;;;;;;4966427;28;20054;-70
2023/10/06 02:44:29;;;;;;;4.38;2.67;;;9.10;99.90;;;;;;4971395;28;20023;-72
2023/10/06 02:46:55;;;;;;;8.23;3.13;;;9.10;99.90;;;;;;4966076;28;20035;-70
2023/10/06 02:49:31;;;;;;;6.75;2.17;;;9.10;99.90;;;;;;4971642;28;20027;-70
2023/10/06 02:52:00;;;;;;;11.02;2.67;;;9.20;99.90;;;;;;4966495;28;20444;-71
2023/10/06 02:54:30;;;;;;;10.07;2.72;;;9.20;99.90;;;;;;4987621;28;20506;-70
2023/10/06 02:56:56;;;;;;;7.20;3.17;;;9.20;99.90;;;;;;4966244;28;20146;-70
2023/10/06 02:59:25;;;;;;;6.88;3.20;;;9.30;99.90;;;;;;4971281;28;20137;-70
2023/10/06 03:02:06;;;;;;;12.60;3.38;;;9.30;99.90;;;;;;4950271;28;20034;-71
2023/10/06 03:04:36;;;;;;;7.90;3.20;;;9.40;99.90;;;;;;4971010;28;20420;-71
2023/10/06 03:07:11;;;;;;;9.30;3.45;;;9.50;99.90;;;;;;4965479;28;20038;-70
2023/10/06 03:09:38;;;;;;;4.90;2.17;;;9.50;99.90;;;;;;4956380;28;20085;-70
2023/10/06 03:14:39;;;;;;;4.88;3.05;;;9.50;99.90;;;;;;4972158;28;20038;-70
2023/10/06 03:17:10;;;;;;;10.23;3.25;;;9.50;99.90;;;;;;4957958;28;20371;-70
2023/10/06 03:19:40;;;;;;;;;;;9.40;99.90;;;;;;4972658;28;20030;-70
2023/10/06 03:22:09;;;;;;;4.15;2.97;;;9.50;99.90;;;;;;4954980;28;20385;-71
2023/10/06 03:24:45;;;;;;;7.78;2.80;;;9.50;99.90;;;;;;4952590;28;20034;-71
2023/10/06 03:27:15;;;;;;;7.25;3.67;;;9.50;99.90;;;;;;4950233;28;20062;-70
2023/10/06 03:30:07;;;;;;;8.18;3.35;;;9.50;99.90;;;;;;4970764;28;20471;-70
2023/10/06 03:32:35;;;;;;;6.95;2.63;;;9.50;99.90;;;;;;4966197;28;20057;-71
2023/10/06 03:36:04;;;;;;;12.90;3.20;;;9.40;99.90;;;;;;4970862;28;20043;-70
2023/10/06 03:38:08;;;;;;;6.38;2.60;;;9.40;99.90;;;;;;4963976;28;20484;-71
2023/10/06 03:40:48;;;;;;;6.95;3.40;;;9.40;99.90;;;;;;4974635;28;20038;-71
2023/10/06 03:43:14;;;;;;;3.95;2.33;;;9.40;99.90;;;;;;4969338;28;20031;-71
2023/10/06 03:45:42;;;;;;;4.38;2.47;;;9.30;99.90;;;;;;4974091;28;20125;-71
2023/10/06 03:48:08;;;;;;;16.38;3.78;;;9.20;99.90;;;;;;4969389;28;20704;-71
2023/10/06 03:50:44;;;;;;;5.15;2.75;;;9.30;99.90;;;;;;4957385;28;20042;-71
2023/10/06 03:53:14;;;;;;;4.88;2.78;;;9.20;99.90;;;;;;4972669;28;20364;-71
2023/10/06 03:55:44;;;;;;;10.10;3.25;;;9.20;99.90;;;;;;4958049;28;20120;-71
2023/10/06 03:58:14;;;;;;;3.70;2.97;;;9.20;99.90;;;;;;4971014;28;20023;-71
2023/10/06 04:00:47;;;;;;;4.55;2.22;;;9.10;99.90;;;;;;4974151;28;20034;-71
2023/10/06 04:03:15;;;;;;;5.97;2.42;;;9.00;99.90;;;;;;4968382;28;20115;-72
2023/10/06 04:05:52;;;;;;;9.80;2.88;;;8.90;99.90;;;;;;4973534;28;20026;-71
2023/10/06 04:08:22;;;;;;;19.10;3.50;;;8.90;99.90;;;;;;4971946;28;20027;-71
2023/10/06 04:10:57;;;;;;;12.07;3.17;;;8.90;99.90;;;;;;4973648;28;20034;-71
2023/10/06 04:13:24;;;;;;;5.47;3.20;;;8.90;99.90;;;;;;4968760;28;20027;-71
2023/10/06 04:15:50;;;;;;;6.75;2.92;;;9.00;99.90;;;;;;4957514;28;20055;-71
2023/10/06 04:18:18;;;;;;;6.30;2.55;;;9.10;99.90;;;;;;4968665;28;20041;-71
2023/10/06 04:20:47;;;;;;;6.63;2.95;;;9.10;99.90;;;;;;4957639;28;20030;-71
2023/10/06 04:23:16;;;;;;;10.80;3.40;;;9.20;99.90;;;;;;4952924;28;20038;-71
2023/10/06 04:25:44;;;;;;;5.07;3.58;;;9.10;99.90;;;;;;4986401;28;20035;-71
2023/10/06 04:28:13;;;;;;;213.73;79.07;;;8.90;99.90;;;;;;4968357;28;20046;-71
2023/10/06 04:30:44;;;;;;;119.50;52.30;;;8.80;99.90;;;;;;4974667;28;20023;-71
2023/10/06 04:33:14;;;;;;;33.03;13.30;;;8.70;99.90;;;;;;4966008;28;20049;-71
2023/10/06 04:38:47;;;;;;;12.18;6.32;;;8.60;99.90;;;;;;4950265;29;20491;-74
2023/10/06 04:41:14;;;;;;;15.35;6.20;;;8.50;99.90;;;;;;4968210;28;20045;-70
2023/10/06 04:43:44;;;;;;;37.30;16.33;;;8.60;99.90;;;;;;4970033;28;20038;-70
2023/10/06 04:46:11;;;;;;;20.63;7.80;;;8.60;99.90;;;;;;4973974;28;20027;-70
2023/10/06 04:48:38;;;;;;;14.30;5.32;;;8.60;99.90;;;;;;4969156;28;20085;-71
2023/10/06 04:51:05;;;;;;;13.20;6.10;;;8.50;99.90;;;;;;4973134;28;20027;-71
2023/10/06 04:53:35;;;;;;;8.77;4.32;;;8.50;99.90;;;;;;4969154;28;20380;-71
2023/10/06 04:56:06;;;;;;;13.77;4.13;;;8.40;99.90;;;;;;4972629;28;20033;-71
2023/10/06 04:58:32;;;;;;;8.82;3.60;;;8.50;99.90;;;;;;4985088;28;20031;-71
2023/10/06 05:01:07;;;;;;;7.97;3.58;;;8.50;99.90;;;;;;4973096;28;20038;-71
2023/10/06 05:03:45;;;;;;;7.65;3.40;;;8.40;99.90;;;;;;4974025;28;20041;-71
2023/10/06 05:06:16;;;;;;;5.10;2.70;;;8.20;99.90;;;;;;4972677;28;20039;-71
2023/10/06 05:08:46;;;;;;;16.25;4.00;;;8.20;99.90;;;;;;4969630;28;20122;-72
2023/10/06 05:11:20;;;;;;;42.63;18.00;;;8.20;99.90;;;;;;4955837;28;20031;-71
2023/10/06 05:13:52;;;;;;;78.10;32.83;;;8.40;99.90;;;;;;4985059;28;20035;-72
2023/10/06 05:16:19;;;;;;;20.90;6.60;;;8.50;99.90;;;;;;4967288;28;20023;-70
2023/10/06 05:18:45;;;;;;;7.50;3.70;;;8.50;99.90;;;;;;4969605;28;20030;-70
2023/10/06 05:21:11;;;;;;;16.73;5.10;;;8.60;99.90;;;;;;4971722;28;20030;-71
2023/10/06 05:23:37;;;;;;;9.60;3.13;;;8.60;99.90;;;;;;4968537;28;20360;-71
2023/10/06 05:26:04;;;;;;;10.25;3.42;;;8.50;99.90;;;;;;4973080;28;20101;-71
2023/10/06 05:28:31;;;;;;;6.53;2.63;;;8.50;99.90;;;;;;4973095;28;20034;-71
2023/10/06 05:30:57;;;;;;;14.50;4.50;;;8.50;99.90;;;;;;4950868;28;20031;-69
2023/10/06 05:35:59;;;;;;;27.98;4.78;;;8.50;99.90;;;;;;4958965;23;20061;-66
2023/10/06 05:38:25;;;;;;;11.68;6.32;;;8.50;99.90;;;;;;4963621;28;20298;-67
2023/10/06 05:40:51;;;;;;;17.55;3.60;;;8.40;99.90;;;;;;4947971;28;20133;-66
2023/10/06 05:43:17;;;;;;;8.60;4.05;;;8.40;99.90;;;;;;4950458;28;20042;-66
2023/10/06 05:45:51;;;;;;;7.88;3.45;;;8.30;99.90;;;;;;4947231;28;20035;-67
2023/10/06 05:48:21;;;;;;;4.47;2.72;;;8.40;99.90;;;;;;4953548;29;20495;-66
2023/10/06 05:50:48;;;;;;;9.73;3.58;;;8.40;99.90;;;;;;4946924;29;20410;-66
2023/10/06 05:53:23;;;;;;;4.90;2.63;;;8.40;99.90;;;;;;4953042;29;20418;-65
2023/10/06 05:55:52;;;;;;;3.28;1.45;;;8.40;99.90;;;;;;4947642;28;20462;-66
2023/10/06 05:58:23;;;;;;;4.00;1.70;;;8.40;99.90;;;;;;4951819;28;20037;-66
2023/10/06 06:00:55;;;;;;;;;;;8.20;99.90;;;;;;4946663;29;20074;-66
2023/10/06 06:03:23;;;;;;;7.80;3.08;;;8.20;99.90;;;;;;4945942;29;19921;-66
2023/10/06 06:05:53;;;;;;;5.00;2.60;;;8.30;99.90;;;;;;4946966;29;20042;-66
2023/10/06 06:08:22;;;;;;;7.53;2.92;;;8.40;99.90;;;;;;4944676;29;20646;-66
2023/10/06 06:10:48;;;;;;;7.90;3.03;;;8.50;99.90;;;;;;4919063;28;20376;-65
2023/10/06 06:13:16;;;;;;;7.53;3.83;;;8.50;99.90;;;;;;4951927;28;20027;-65
2023/10/06 06:15:41;;;;;;;7.88;2.78;;;8.70;99.90;;;;;;4946825;28;20045;-66
2023/10/06 06:18:08;;;;;;;9.23;3.85;;;8.70;99.90;;;;;;4953186;29;20027;-66
2023/10/06 06:20:41;;;;;;;8.57;3.55;;;8.80;99.90;;;;;;4947791;29;20061;-66
2023/10/06 06:23:15;;;;;;;12.93;3.75;;;8.90;99.90;;;;;;4953114;29;20101;-65
2023/10/06 06:25:42;;;;;;;8.35;3.15;;;8.90;99.90;;;;;;4926842;29;20665;-66
2023/10/06 06:28:12;;;;;;;13.38;2.72;;;9.00;99.90;;;;;;4951998;29;20023;-67
2023/10/06 06:30:39;;;;;;;10.50;3.47;;;9.10;99.90;;;;;;4950709;29;20027;-67
2023/10/06 06:33:12;;;;;;;11.55;3.08;;;9.10;99.90;;;;;;4952165;29;20031;-67
2023/10/06 06:35:40;;;;;;;7.55;2.95;;;9.10;99.90;;;;;;4945540;28;20036;-67
2023/10/06 06:38:06;;;;;;;9.10;3.35;;;9.00;99.90;;;;;;4948647;29;20055;-67
2023/10/06 06:40:34;;;;;;;6.15;2.97;;;9.10;99.90;;;;;;4951275;28;20102;-67
2023/10/06 06:43:00;;;;;;;9.00;3.10;;;9.20;99.90;;;;;;4949064;28;20034;-66
2023/10/06 06:45:28;;;;;;;7.55;2.92;;;9.20;99.90;;;;;;4951898;28;20490;-66
2023/10/06 06:47:55;;;;;;;8.60;3.33;;;9.30;99.90;;;;;;4930387;29;20023;-66
2023/10/06 06:50:21;;;;;;;8.05;4.45;;;9.40;99.90;;;;;;4952083;28;20479;-65
2023/10/06 06:52:54;;;;;;;7.95;2.97;;;9.40;99.90;;;;;;4945092;29;20039;-66
2023/10/06 06:55:20;;;;;;;5.57;2.90;;;9.50;99.90;;;;;;4951254;28;20110;-67
2023/10/06 06:57:49;;;;;;;10.55;2.90;;;9.60;99.90;;;;;;4945569;29;20098;-67
2023/10/06 07:00:23;;;;;;;9.25;3.45;;;9.70;99.90;;;;;;4951543;29;20031;-65
2023/10/06 07:02:52;;;;;;;11.93;4.10;;;9.80;99.90;;;;;;4945002;29;20502;-66
2023/10/06 07:05:20;;;;;;;8.32;3.90;;;9.90;99.90;;;;;;4951219;28;20066;-67
2023/10/06 07:07:50;;;;;;;7.68;3.03;;;10.00;99.90;;;;;;4945490;29;20027;-67
2023/10/06 07:10:22;;;;;;;13.05;4.32;;;10.00;99.90;;;;;;4952051;28;20035;-67
2023/10/06 07:12:50;;;;;;;7.13;3.33;;;10.10;99.90;;;;;;4950319;28;20035;-67
2023/10/06 07:15:18;;;;;;;14.38;3.85;;;10.20;99.90;;;;;;4953540;28;20116;-67
2023/10/06 07:17:50;;;;;;;7.70;3.45;;;10.30;99.90;;;;;;4948591;29;20042;-67
2023/10/06 07:20:18;;;;;;;8.32;3.80;;;10.20;99.90;;;;;;4955063;29;20039;-67
2023/10/06 07:22:49;;;;;;;15.25;5.15;;;10.30;99.90;;;;;;4946336;28;20031;-67
2023/10/06 07:25:15;;;;;;;13.20;4.72;;;10.30;99.90;;;;;;4954420;28;20033;-67
2023/10/06 07:27:47;;;;;;;8.25;4.18;;;10.50;99.90;;;;;;4947165;28;20019;-67
2023/10/06 07:30:16;;;;;;;12.60;4.78;;;10.60;99.90;;;;;;4954979;29;20358;-65
2023/10/06 07:32:46;;;;;;;8.18;4.15;;;10.60;99.90;;;;;;4948419;28;20055;-66
2023/10/06 07:35:15;;;;;;;9.07;3.95;;;10.70;99.90;;;;;;4954241;28;20557;-67
2023/10/06 07:37:42;;;;;;;16.48;5.10;;;10.80;99.90;;;;;;4947191;29;20043;-67
2023/10/06 07:40:13;;;;;;;19.85;3.92;;;10.80;99.90;;;;;;4955892;28;20030;-67
2023/10/06 07:42:41;;;;;;;11.27;5.20;;;11.00;99.90;;;;;;4950344;28;20039;-67
2023/10/06 07:45:08;;;;;;;9.27;4.80;;;11.10;99.90;;;;;;4951586;29;20035;-67
2023/10/06 07:47:36;;;;;;;12.30;6.55;;;11.10;99.90;;;;;;4947208;28;20034;-67
2023/10/06 07:50:06;;;;;;;15.27;6.15;;;11.20;99.90;;;;;;4950670;29;20023;-66
2023/10/06 07:52:33;;;;;;;12.27;6.37;;;11.30;99.90;;;;;;4953947;28;20494;-67
2023/10/06 07:55:00;;;;;;;18.00;6.65;;;11.30;99.90;;;;;;4955543;28;20023;-67
2023/10/06 07:57:31;;;;;;;11.75;5.88;;;11.40;99.90;;;;;;4948133;28;20383;-67
2023/10/06 07:59:59;;;;;;;20.77;5.30;;;11.50;99.90;;;;;;4955865;29;20039;-66
2023/10/06 08:02:29;;;;;;;21.63;5.97;;;11.60;99.90;;;;;;4947652;29;20082;-66
2023/10/06 08:04:55;;;;;;;16.63;5.78;;;11.60;99.90;;;;;;4953890;28;20024;-66
2023/10/06 08:07:26;;;;;;;12.95;5.18;;;11.60;99.90;;;;;;4947994;28;20475;-67
2023/10/06 08:10:05;;;;;;;15.43;4.93;;;11.70;99.90;;;;;;4954034;29;20028;-66
2023/10/06 08:12:33;;;;;;;8.75;4.18;;;11.90;99.90;;;;;;4949458;28;20043;-66
2023/10/06 08:15:09;;;;;;;7.50;3.88;;;12.10;99.90;;;;;;4953513;29;20479;-66
2023/10/06 08:17:35;;;;;;;8.60;3.55;;;12.20;99.90;;;;;;4946702;29;20031;-66
2023/10/06 08:20:02;;;;;;;8.98;3.90;;;12.30;99.90;;;;;;4955128;28;20105;-67
2023/10/06 08:22:33;;;;;;;10.18;3.97;;;12.40;99.90;;;;;;4952511;28;20039;-66
2023/10/06 08:25:05;;;;;;;15.50;4.05;;;12.50;99.90;;;;;;4954869;28;20027;-66
2023/10/06 08:27:33;;;;;;;7.20;4.18;;;12.60;99.90;;;;;;4953549;29;20480;-66
2023/10/06 08:29:58;;;;;;;10.80;3.80;;;12.60;99.90;;;;;;4955154;29;20027;-66
2023/10/06 08:32:24;;;;;;;13.52;3.97;;;12.80;99.90;;;;;;4947196;29;20461;-66
2023/10/06 08:34:51;;;;;;;11.75;5.32;;;12.60;99.90;;;;;;4953353;28;20035;-66
2023/10/06 08:37:17;;;;;;;8.88;3.58;;;12.80;99.90;;;;;;4947263;29;20118;-66
2023/10/06 08:39:46;;;;;;;11.52;3.85;;;12.90;99.90;;;;;;4954571;28;20027;-66
2023/10/06 08:42:15;;;;;;;11.75;3.60;;;13.00;99.90;;;;;;4949098;28;20491;-66
2023/10/06 08:44:41;;;;;;;11.00;3.35;;;13.10;99.90;;;;;;4954218;28;20475;-66
2023/10/06 08:47:15;;;;;;;13.65;3.40;;;13.30;99.90;;;;;;4952342;29;20034;-66
2023/10/06 08:49:43;;;;;;;5.88;3.05;;;13.40;99.90;;;;;;4953372;28;20027;-66
2023/10/06 08:52:12;;;;;;;8.13;3.95;;;13.30;99.90;;;;;;4946275;29;20031;-66
2023/10/06 08:54:43;;;;;;;7.18;3.58;;;13.40;99.90;;;;;;4954219;28;20058;-66
2023/10/06 08:57:12;;;;;;;11.05;3.85;;;13.50;99.90;;;;;;4945937;29;20037;-66
2023/10/06 08:59:39;;;;;;;17.15;3.20;;;13.40;99.90;;;;;;4953093;28;20035;-66
2023/10/06 09:02:07;;;;;;;9.00;3.70;;;13.40;99.90;;;;;;4945770;29;20082;-66
2023/10/06 09:04:37;;;;;;;12.00;3.75;;;13.60;99.90;;;;;;4952519;28;20027;-66
2023/10/06 09:07:17;;;;;;;12.55;4.10;;;13.60;99.90;;;;;;4952780;29;20055;-66
2023/10/06 09:09:43;;;;;;;11.27;4.60;;;13.70;99.90;;;;;;4937673;29;20427;-67
2023/10/06 09:12:31;;;;;;;14.85;3.65;;;13.70;99.90;;;;;;4948949;28;20427;-67
2023/10/06 09:14:57;;;;;;;7.32;3.40;;;13.90;99.90;;;;;;4947914;29;20035;-65
2023/10/06 09:17:35;;;;;;;8.27;3.33;;;13.90;99.90;;;;;;4946373;29;20040;-66
2023/10/06 09:20:00;;;;;;;14.15;3.75;;;14.10;99.90;;;;;;4954059;29;20407;-66
2023/10/06 09:22:29;;;;;;;9.25;4.03;;;14.30;99.90;;;;;;4945974;28;20047;-66
2023/10/06 09:25:02;;;;;;;7.68;3.83;;;14.40;99.90;;;;;;4951370;28;20024;-66
2023/10/06 09:27:28;;;;;;;8.50;3.45;;;14.70;99.90;;;;;;4948844;29;20119;-57
2023/10/06 09:30:11;;;;;;;10.18;2.88;;;14.90;99.90;;;;;;4947504;29;20122;-57
2023/10/06 09:32:39;;;;;;;16.42;4.03;;;14.70;99.90;;;;;;4947825;29;20035;-57
2023/10/06 09:35:24;;;;;;;16.83;3.30;;;15.10;99.90;;;;;;4953452;28;20023;-56
2023/10/06 09:37:51;;;;;;;11.30;3.65;;;15.30;99.90;;;;;;4945347;29;20035;-56
2023/10/06 09:40:22;;;;;;;13.70;2.92;;;15.50;99.90;;;;;;4946178;29;20106;-56
2023/10/06 09:42:50;;;;;;;6.65;3.72;;;15.70;99.90;;;;;;4948873;28;20023;-65
2023/10/06 09:45:21;;;;;;;10.77;3.03;;;15.80;99.90;;;;;;4949354;28;20546;-65
2023/10/06 09:47:56;;;;;;;8.48;3.60;;;15.90;99.90;;;;;;4937395;29;20031;-66
2023/10/06 09:50:23;;;;;;;7.13;3.33;;;16.00;99.90;;;;;;4951601;29;20039;-66
2023/10/06 09:52:50;;;;;;;19.42;3.92;;;16.30;99.90;;;;;;4946664;29;20034;-66
2023/10/06 09:55:25;;;;;;;9.13;3.60;;;16.20;99.90;;;;;;4951545;28;20089;-65
2023/10/06 09:57:51;;;;;;;9.10;4.00;;;16.30;99.90;;;;;;4961032;28;20034;-66
2023/10/06 10:00:19;;;;;;;11.43;3.55;;;16.50;99.90;;;;;;4951892;29;20479;-66
2023/10/06 10:02:49;;;;;;;11.45;2.85;;;16.40;99.90;;;;;;4948641;29;20063;-66
2023/10/06 10:05:19;;;;;;;13.07;3.13;;;16.40;99.90;;;;;;4945657;28;20028;-65
2023/10/06 10:07:49;;;;;;;10.18;3.20;;;16.50;99.90;;;;;;4947081;29;20476;-66
2023/10/06 10:10:22;;;;;;;12.73;3.67;;;16.70;99.90;;;;;;4949290;29;20035;-66
2023/10/06 10:13:09;;;;;;;11.07;3.17;;;16.70;99.90;;;;;;4937856;29;20063;-67
2023/10/06 10:16:36;;;;;;;8.77;2.65;;;16.80;99.90;;;;;;4949616;28;20576;-66
2023/10/06 10:19:11;;;;;;;5.85;2.85;;;16.80;99.90;;;;;;4932192;28;20043;-66
2023/10/06 10:21:38;;;;;;;6.40;2.83;;;17.00;99.90;;;;;;4949629;29;20044;-66
2023/10/06 10:24:05;;;;;;;8.15;2.47;;;17.40;99.90;;;;;;4951040;28;20031;-66
2023/10/06 10:26:36;;;;;;;9.50;2.63;;;17.80;99.90;;;;;;4943333;29;20045;-66
2023/10/06 10:29:16;;;;;;;10.40;2.83;;;17.40;99.90;;;;;;4950056;29;20027;-66
2023/10/06 10:31:44;;;;;;;8.60;3.35;;;17.50;99.90;;;;;;4939170;29;20118;-66
2023/10/06 10:34:25;;;;;;;9.85;2.60;;;17.80;99.90;;;;;;4949274;29;20376;-66
2023/10/06 10:37:05;;;;;;;6.60;2.25;;;18.00;99.90;;;;;;4939211;29;20534;-66
2023/10/06 10:39:51;;;;;;;7.18;3.10;;;17.90;99.90;;;;;;4945774;28;20059;-66
2023/10/06 10:42:38;;;;;;;9.82;2.63;;;18.20;99.90;;;;;;4951072;28;20093;-66
2023/10/06 10:45:36;;;;;;;13.90;2.65;;;18.10;99.90;;;;;;4951113;28;20038;-67
2023/10/06 10:48:15;;;;;;;5.97;2.33;;;18.30;99.90;;;;;;4944024;29;20035;-66
2023/10/06 10:50:53;;;;;;;11.52;2.72;;;18.50;99.90;;;;;;4940099;29;20054;-67
2023/10/06 10:53:22;;;;;;;11.40;2.88;;;18.60;99.90;;;;;;4942183;29;20036;-67
2023/10/06 10:55:49;;;;;;;8.45;2.85;;;18.50;99.90;;;;;;4951706;29;20035;-67
2023/10/06 10:58:53;;;;;;;6.38;2.70;;;19.10;99.90;;;;;;4950809;29;20063;-66
2023/10/06 11:01:38;;;;;;;10.40;2.83;;;19.10;99.90;;;;;;4954678;29;20149;-66
2023/10/06 11:04:29;;;;;;;7.28;2.83;;;18.40;99.90;;;;;;4938480;29;20039;-67
2023/10/06 11:06:58;;;;;;;4.63;2.00;;;18.80;99.90;;;;;;4945850;29;20050;-66
2023/10/06 11:09:26;;;;;;;10.48;2.75;;;18.90;99.90;;;;;;4951579;28;20043;-67
2023/10/06 11:12:15;;;;;;;6.72;2.28;;;19.80;99.90;;;;;;4948463;29;20441;-67
2023/10/06 11:14:41;;;;;;;4.57;2.22;;;19.70;99.90;;;;;;4951281;28;20072;-66
2023/10/06 11:17:07;;;;;;;11.05;2.60;;;20.10;99.90;;;;;;4947649;29;20066;-66
2023/10/06 11:19:37;;;;;;;6.25;2.47;;;21.00;99.90;;;;;;4950461;29;20031;-67
2023/10/06 11:22:13;;;;;;;9.55;3.33;;;22.50;98.60;;;;;;4948863;29;20191;-66
2023/10/06 11:24:44;;;;;;;7.35;2.10;;;23.00;94.80;;;;;;4954789;28;20054;-58
2023/10/06 11:27:21;;;;;;;6.93;2.17;;;23.50;92.90;;;;;;4952082;29;20055;-58
2023/10/06 11:29:52;;;;;;;6.20;1.95;;;23.70;88.80;;;;;;4949382;29;20030;-64
2023/10/06 11:32:19;;;;;;;5.35;1.92;;;23.60;90.40;;;;;;4940105;29;20392;-62
2023/10/06 11:34:46;;;;;;;5.32;2.03;;;23.80;88.70;;;;;;4947723;29;20395;-55
2023/10/06 11:37:22;;;;;;;4.85;2.00;;;23.30;90.60;;;;;;4953918;29;20039;-56
2023/10/06 11:39:52;;;;;;;6.57;1.90;;;23.30;90.10;;;;;;4947092;29;20034;-58
2023/10/06 11:42:24;;;;;;;6.20;2.33;;;23.90;90.40;;;;;;4952502;29;20035;-59
2023/10/06 11:44:54;;;;;;;6.28;1.73;;;23.70;88.00;;;;;;4948157;28;20534;-58
2023/10/06 11:47:26;;;;;;;7.10;2.20;;;23.70;87.90;;;;;;4966292;23;20070;-56
2023/10/06 11:49:56;;;;;;;6.53;1.90;;;23.70;85.40;;;;;;4975106;28;20117;-55
2023/10/06 11:52:22;;;;;;;9.32;2.08;;;24.00;88.20;;;;;;4951384;28;20046;-58
2023/10/06 11:54:48;;;;;;;6.32;2.22;;;24.10;84.80;;;;;;4955562;28;20039;-56
2023/10/06 11:57:14;;;;;;;5.32;1.58;;;23.00;90.90;;;;;;4951266;28;20039;-55
2023/10/06 11:59:57;;;;;;;4.97;1.60;;;25.20;78.60;;;;;;4934983;29;21492;-54
2023/10/06 12:02:24;;;;;;;4.22;1.45;;;24.10;80.10;;;;;;4951215;29;20063;-55
2023/10/06 12:04:50;;;;;;;6.18;1.88;;;22.90;82.00;;;;;;4954690;29;20034;-55
2023/10/06 12:07:26;;;;;;;10.13;1.65;;;23.90;83.30;;;;;;4948735;29;20040;-57
2023/10/06 12:10:03;;;;;;;3.67;1.58;;;25.20;76.40;;;;;;4947735;29;20035;-57
2023/10/06 12:12:29;;;;;;;8.77;1.73;;;24.40;74.60;;;;;;4945830;28;20059;-58
2023/10/06 12:14:56;;;;;;;6.15;1.80;;;25.00;76.00;;;;;;4951970;28;20802;-55
2023/10/06 12:17:23;;;;;;;6.10;1.17;;;24.60;71.80;;;;;;4951955;29;20126;-55
2023/10/06 12:19:49;;;;;;;4.65;1.63;;;24.00;76.60;;;;;;4953280;29;20031;-56
2023/10/06 12:22:16;;;;;;;5.82;1.10;;;23.50;77.90;;;;;;4951264;29;20413;-51
2023/10/06 12:24:42;;;;;;;7.45;2.15;;;23.00;79.20;;;;;;4953727;28;20518;-54
2023/10/06 12:27:09;;;;;;;6.15;1.20;;;22.70;82.30;;;;;;4950528;29;20039;-53
2023/10/06 12:29:35;;;;;;;6.65;1.23;;;22.80;76.60;;;;;;4952034;29;20027;-56
2023/10/06 12:32:01;;;;;;;6.03;1.30;;;22.70;73.90;;;;;;4951430;29;20053;-56
2023/10/06 12:34:31;;;;;;;2.58;1.00;;;23.60;73.30;;;;;;4969011;28;20113;-64
2023/10/06 12:37:01;;;;;;;1.77;0.60;;;24.00;70.80;;;;;;4947196;28;20023;-57
2023/10/06 12:39:34;;;;;;;7.45;1.17;;;22.90;72.60;;;;;;4954379;29;20355;-57
2023/10/06 12:42:03;;;;;;;7.93;1.42;;;22.70;73.00;;;;;;4947833;28;20105;-53
2023/10/06 12:44:30;;;;;;;5.25;1.17;;;22.70;79.40;;;;;;4954015;28;20023;-54
2023/10/06 12:46:56;;;;;;;3.97;1.17;;;22.70;79.90;;;;;;4947276;29;20031;-54
2023/10/06 12:49:23;;;;;;;1.70;0.88;;;23.30;78.90;;;;;;4954724;29;20047;-51
2023/10/06 12:51:52;;;;;;;13.32;2.35;;;23.50;76.70;;;;;;4948785;29;20035;-57
2023/10/06 12:54:17;;;;;;;4.85;1.27;;;24.90;75.10;;;;;;4952871;28;20031;-54
2023/10/06 12:56:49;;;;;;;3.03;1.02;;;25.80;66.50;;;;;;4952493;29;20042;-60
2023/10/06 12:59:14;;;;;;;6.55;1.83;;;24.40;68.40;;;;;;4954270;28;20034;-56
2023/10/06 13:01:43;;;;;;;2.00;1.15;;;23.20;72.80;;;;;;4947936;28;20447;-56
2023/10/06 13:04:13;;;;;;;3.92;1.08;;;23.90;71.10;;;;;;4953592;28;20530;-57
2023/10/06 13:06:39;;;;;;;4.35;1.02;;;25.40;68.40;;;;;;4952049;29;20051;-57
2023/10/06 13:09:08;;;;;;;3.00;1.40;;;23.80;67.60;;;;;;4953806;28;20082;-57
2023/10/06 13:11:35;;;;;;;7.47;1.33;;;25.10;68.10;;;;;;4947370;29;20031;-58
2023/10/06 13:14:03;;;;;;;4.55;1.25;;;24.30;69.80;;;;;;4952288;28;20019;-58
2023/10/06 13:16:31;;;;;;;8.98;1.83;;;24.20;71.90;;;;;;4947706;28;20491;-55
2023/10/06 13:18:56;;;;;;;6.57;1.65;;;22.70;73.30;;;;;;4954119;28;20031;-67